Flinton, Pennsylvania
Current Conditions -  °F | °C
As of 1:54 PM on Thursday 18 Dec 2014 (Local Time) from KFIG Reporting Station
Overcast Overcast  
Wind Chill: 19°   Ceiling: 1200
Heat Index: 28°   Visibility: 10mi
Dew Point: 24°   Wind: 10mph
Humidity: 85%   Direction: 260°W
Pressure: 30.06"   Gusts: NA
Location:  40.71°N, 78.52°W
Report Text: KFIG 181854Z AUTO 26009KT 10SM OVC012 M02/M04 A3006 RMK AO2 SLP200 T10221044
Loading
Personal Weather Stations






























Interactive Weather Map New forecast layout! Learn more

10-Day Weather Forecast

Advertisements
Track Severe Weather on mobile